sensor_id;sensor_type;location;lat;lon;timestamp;pressure;altitude;pressure_sealevel;temperature
68446;BMP280;35789;48.414;12.768;2023-06-22T00:00:00;97170.0;;;
68446;BMP280;35789;48.414;12.768;2023-06-22T00:05:00;97170.0;;;
68446;BMP280;35789;48.414;12.768;2023-06-22T00:10:00;97180.0;;;
68446;BMP280;35789;48.414;12.768;2023-06-22T00:15:00;97180.0;;;
68446;BMP280;35789;48.414;12.768;2023-06-22T00:20:00;97170.0;;;
68446;BMP280;35789;48.414;12.768;2023-06-22T00:25:00;97160.0;;;
68446;BMP280;35789;48.414;12.768;2023-06-22T00:30:00;97160.0;;;
68446;BMP280;35789;48.414;12.768;2023-06-22T00:35:00;97170.0;;;
68446;BMP280;35789;48.414;12.768;2023-06-22T00:40:00;97160.0;;;
68446;BMP280;35789;48.414;12.768;2023-06-22T00:45:00;97150.0;;;
68446;BMP280;35789;48.414;12.768;2023-06-22T00:50:00;97120.0;;;
68446;BMP280;35789;48.414;12.768;2023-06-22T00:55:02;97120.0;;;
68446;BMP280;35789;48.414;12.768;2023-06-22T01:00:00;97090.0;;;
68446;BMP280;35789;48.414;12.768;2023-06-22T01:05:00;97080.0;;;
68446;BMP280;35789;48.414;12.768;2023-06-22T01:10:08;97080.0;;;
68446;BMP280;35789;48.414;12.768;2023-06-22T01:15:08;97060.0;;;
68446;BMP280;35789;48.414;12.768;2023-06-22T01:20:02;97040.0;;;
68446;BMP280;35789;48.414;12.768;2023-06-22T01:25:09;97050.0;;;
68446;BMP280;35789;48.414;12.768;2023-06-22T01:30:02;97060.0;;;
68446;BMP280;35789;48.414;12.768;2023-06-22T01:35:04;97060.0;;;
68446;BMP280;35789;48.414;12.768;2023-06-22T01:40:01;97060.0;;;
68446;BMP280;35789;48.414;12.768;2023-06-22T01:45:01;97050.0;;;
68446;BMP280;35789;48.414;12.768;2023-06-22T01:50:01;97050.0;;;
68446;BMP280;35789;48.414;12.768;2023-06-22T01:55:00;97040.0;;;
68446;BMP280;35789;48.414;12.768;2023-06-22T02:00:03;97040.0;;;
68446;BMP280;35789;48.414;12.768;2023-06-22T02:05:06;97040.0;;;
68446;BMP280;35789;48.414;12.768;2023-06-22T02:10:02;97040.0;;;
68446;BMP280;35789;48.414;12.768;2023-06-22T02:15:01;97030.0;;;
68446;BMP280;35789;48.414;12.768;2023-06-22T02:20:02;97030.0;;;
68446;BMP280;35789;48.414;12.768;2023-06-22T02:25:00;97030.0;;;
68446;BMP280;35789;48.414;12.768;2023-06-22T02:30:00;97020.0;;;
68446;BMP280;35789;48.414;12.768;2023-06-22T02:35:00;97020.0;;;
68446;BMP280;35789;48.414;12.768;2023-06-22T02:40:00;97030.0;;;
68446;BMP280;35789;48.414;12.768;2023-06-22T02:45:00;97030.0;;;
68446;BMP280;35789;48.414;12.768;2023-06-22T02:50:00;97030.0;;;
68446;BMP280;35789;48.414;12.768;2023-06-22T02:55:00;97030.0;;;
68446;BMP280;35789;48.414;12.768;2023-06-22T03:00:03;97040.0;;;
68446;BMP280;35789;48.414;12.768;2023-06-22T03:05:00;97040.0;;;
68446;BMP280;35789;48.414;12.768;2023-06-22T03:10:00;97050.0;;;
68446;BMP280;35789;48.414;12.768;2023-06-22T03:15:00;97050.0;;;
68446;BMP280;35789;48.414;12.768;2023-06-22T03:20:00;97040.0;;;
68446;BMP280;35789;48.414;12.768;2023-06-22T03:25:00;97040.0;;;
68446;BMP280;35789;48.414;12.768;2023-06-22T03:30:00;97040.0;;;
68446;BMP280;35789;48.414;12.768;2023-06-22T03:35:01;97050.0;;;
68446;BMP280;35789;48.414;12.768;2023-06-22T03:40:00;97040.0;;;
68446;BMP280;35789;48.414;12.768;2023-06-22T03:45:00;97040.0;;;
68446;BMP280;35789;48.414;12.768;2023-06-22T03:50:00;97030.0;;;
68446;BMP280;35789;48.414;12.768;2023-06-22T03:55:00;97030.0;;;
68446;BMP280;35789;48.414;12.768;2023-06-22T04:00:01;97030.0;;;
68446;BMP280;35789;48.414;12.768;2023-06-22T04:05:00;97020.0;;;
68446;BMP280;35789;48.414;12.768;2023-06-22T04:10:00;97020.0;;;
68446;BMP280;35789;48.414;12.768;2023-06-22T04:15:00;97020.0;;;
68446;BMP280;35789;48.414;12.768;2023-06-22T04:20:00;97020.0;;;
68446;BMP280;35789;48.414;12.768;2023-06-22T04:25:00;97020.0;;;
68446;BMP280;35789;48.414;12.768;2023-06-22T04:30:00;97020.0;;;
68446;BMP280;35789;48.414;12.768;2023-06-22T04:35:00;97020.0;;;
68446;BMP280;35789;48.414;12.768;2023-06-22T04:40:00;97020.0;;;
68446;BMP280;35789;48.414;12.768;2023-06-22T04:45:00;97020.0;;;
68446;BMP280;35789;48.414;12.768;2023-06-22T04:50:00;97020.0;;;
68446;BMP280;35789;48.414;12.768;2023-06-22T04:55:00;97010.0;;;
68446;BMP280;35789;48.414;12.768;2023-06-22T05:00:01;97020.0;;;
68446;BMP280;35789;48.414;12.768;2023-06-22T05:05:00;97020.0;;;
68446;BMP280;35789;48.414;12.768;2023-06-22T05:10:00;97020.0;;;
68446;BMP280;35789;48.414;12.768;2023-06-22T05:15:00;97020.0;;;
68446;BMP280;35789;48.414;12.768;2023-06-22T05:20:00;97020.0;;;
68446;BMP280;35789;48.414;12.768;2023-06-22T05:25:00;97020.0;;;
68446;BMP280;35789;48.414;12.768;2023-06-22T05:30:00;97020.0;;;
68446;BMP280;35789;48.414;12.768;2023-06-22T05:35:00;97010.0;;;
68446;BMP280;35789;48.414;12.768;2023-06-22T05:40:00;97010.0;;;
68446;BMP280;35789;48.414;12.768;2023-06-22T05:45:00;97010.0;;;
68446;BMP280;35789;48.414;12.768;2023-06-22T05:50:00;97020.0;;;
68446;BMP280;35789;48.414;12.768;2023-06-22T05:55:02;97020.0;;;
68446;BMP280;35789;48.414;12.768;2023-06-22T06:00:00;97020.0;;;
68446;BMP280;35789;48.414;12.768;2023-06-22T06:05:00;97010.0;;;
68446;BMP280;35789;48.414;12.768;2023-06-22T06:10:00;97000.0;;;
68446;BMP280;35789;48.414;12.768;2023-06-22T06:15:00;97000.0;;;
68446;BMP280;35789;48.414;12.768;2023-06-22T06:20:00;97000.0;;;
68446;BMP280;35789;48.414;12.768;2023-06-22T06:25:00;96990.0;;;
68446;BMP280;35789;48.414;12.768;2023-06-22T06:30:00;96990.0;;;
68446;BMP280;35789;48.414;12.768;2023-06-22T06:35:00;96990.0;;;
68446;BMP280;35789;48.414;12.768;2023-06-22T06:40:00;96990.0;;;
68446;BMP280;35789;48.414;12.768;2023-06-22T06:45:00;96990.0;;;
68446;BMP280;35789;48.414;12.768;2023-06-22T06:50:00;96990.0;;;
68446;BMP280;35789;48.414;12.768;2023-06-22T06:55:00;96980.0;;;
68446;BMP280;35789;48.414;12.768;2023-06-22T07:00:01;96970.0;;;
68446;BMP280;35789;48.414;12.768;2023-06-22T07:05:00;96970.0;;;
68446;BMP280;35789;48.414;12.768;2023-06-22T07:10:00;96960.0;;;
68446;BMP280;35789;48.414;12.768;2023-06-22T07:15:03;96960.0;;;
68446;BMP280;35789;48.414;12.768;2023-06-22T07:20:00;96950.0;;;
68446;BMP280;35789;48.414;12.768;2023-06-22T07:25:00;96960.0;;;
68446;BMP280;35789;48.414;12.768;2023-06-22T07:30:00;96950.0;;;
68446;BMP280;35789;48.414;12.768;2023-06-22T07:35:00;96950.0;;;
68446;BMP280;35789;48.414;12.768;2023-06-22T07:40:00;96950.0;;;
68446;BMP280;35789;48.414;12.768;2023-06-22T07:45:03;96950.0;;;
68446;BMP280;35789;48.414;12.768;2023-06-22T07:50:01;96950.0;;;
68446;BMP280;35789;48.414;12.768;2023-06-22T07:55:00;96940.0;;;
68446;BMP280;35789;48.414;12.768;2023-06-22T08:00:01;96930.0;;;
68446;BMP280;35789;48.414;12.768;2023-06-22T08:05:00;96930.0;;;
68446;BMP280;35789;48.414;12.768;2023-06-22T08:10:00;96930.0;;;
68446;BMP280;35789;48.414;12.768;2023-06-22T08:15:00;96930.0;;;
68446;BMP280;35789;48.414;12.768;2023-06-22T08:20:00;96930.0;;;
68446;BMP280;35789;48.414;12.768;2023-06-22T08:25:00;96940.0;;;
68446;BMP280;35789;48.414;12.768;2023-06-22T08:30:01;96930.0;;;
68446;BMP280;35789;48.414;12.768;2023-06-22T08:35:00;96920.0;;;
68446;BMP280;35789;48.414;12.768;2023-06-22T08:40:01;96930.0;;;
68446;BMP280;35789;48.414;12.768;2023-06-22T08:45:00;96920.0;;;
68446;BMP280;35789;48.414;12.768;2023-06-22T08:50:00;96910.0;;;
68446;BMP280;35789;48.414;12.768;2023-06-22T08:55:00;96910.0;;;
68446;BMP280;35789;48.414;12.768;2023-06-22T09:00:00;96910.0;;;
68446;BMP280;35789;48.414;12.768;2023-06-22T09:05:03;96900.0;;;
68446;BMP280;35789;48.414;12.768;2023-06-22T09:10:00;96900.0;;;
68446;BMP280;35789;48.414;12.768;2023-06-22T09:15:01;96890.0;;;
68446;BMP280;35789;48.414;12.768;2023-06-22T09:20:00;96890.0;;;
68446;BMP280;35789;48.414;12.768;2023-06-22T09:25:00;96880.0;;;
68446;BMP280;35789;48.414;12.768;2023-06-22T09:30:00;96880.0;;;
68446;BMP280;35789;48.414;12.768;2023-06-22T09:35:04;96870.0;;;
68446;BMP280;35789;48.414;12.768;2023-06-22T09:40:00;96870.0;;;
68446;BMP280;35789;48.414;12.768;2023-06-22T09:45:00;96860.0;;;
68446;BMP280;35789;48.414;12.768;2023-06-22T09:50:00;96860.0;;;
68446;BMP280;35789;48.414;12.768;2023-06-22T09:55:00;96850.0;;;
68446;BMP280;35789;48.414;12.768;2023-06-22T10:00:00;96840.0;;;
68446;BMP280;35789;48.414;12.768;2023-06-22T10:05:00;96840.0;;;
68446;BMP280;35789;48.414;12.768;2023-06-22T10:10:00;96840.0;;;
68446;BMP280;35789;48.414;12.768;2023-06-22T10:15:00;96840.0;;;
68446;BMP280;35789;48.414;12.768;2023-06-22T10:20:00;96840.0;;;
68446;BMP280;35789;48.414;12.768;2023-06-22T10:25:00;96840.0;;;
68446;BMP280;35789;48.414;12.768;2023-06-22T10:30:00;96840.0;;;
68446;BMP280;35789;48.414;12.768;2023-06-22T10:35:00;96840.0;;;
68446;BMP280;35789;48.414;12.768;2023-06-22T10:40:00;96830.0;;;
68446;BMP280;35789;48.414;12.768;2023-06-22T10:45:00;96820.0;;;
68446;BMP280;35789;48.414;12.768;2023-06-22T10:50:01;96820.0;;;
68446;BMP280;35789;48.414;12.768;2023-06-22T10:55:00;96800.0;;;
68446;BMP280;35789;48.414;12.768;2023-06-22T11:00:00;96800.0;;;
68446;BMP280;35789;48.414;12.768;2023-06-22T11:05:00;96790.0;;;
68446;BMP280;35789;48.414;12.768;2023-06-22T11:10:00;96770.0;;;
68446;BMP280;35789;48.414;12.768;2023-06-22T11:15:00;96780.0;;;
68446;BMP280;35789;48.414;12.768;2023-06-22T11:20:00;96770.0;;;
68446;BMP280;35789;48.414;12.768;2023-06-22T11:25:00;96770.0;;;
68446;BMP280;35789;48.414;12.768;2023-06-22T11:30:00;96780.0;;;
68446;BMP280;35789;48.414;12.768;2023-06-22T11:35:00;96760.0;;;
68446;BMP280;35789;48.414;12.768;2023-06-22T11:40:00;96750.0;;;
68446;BMP280;35789;48.414;12.768;2023-06-22T11:45:00;96750.0;;;
68446;BMP280;35789;48.414;12.768;2023-06-22T11:50:00;96740.0;;;
68446;BMP280;35789;48.414;12.768;2023-06-22T11:55:00;96740.0;;;
68446;BMP280;35789;48.414;12.768;2023-06-22T12:00:00;96720.0;;;
68446;BMP280;35789;48.414;12.768;2023-06-22T12:05:00;96720.0;;;
68446;BMP280;35789;48.414;12.768;2023-06-22T12:10:00;96710.0;;;
68446;BMP280;35789;48.414;12.768;2023-06-22T12:15:00;96700.0;;;
68446;BMP280;35789;48.414;12.768;2023-06-22T12:20:00;96700.0;;;
68446;BMP280;35789;48.414;12.768;2023-06-22T12:25:00;96680.0;;;
68446;BMP280;35789;48.414;12.768;2023-06-22T12:30:00;96690.0;;;
68446;BMP280;35789;48.414;12.768;2023-06-22T12:35:00;96680.0;;;
68446;BMP280;35789;48.414;12.768;2023-06-22T12:40:00;96670.0;;;
68446;BMP280;35789;48.414;12.768;2023-06-22T12:45:00;96670.0;;;
68446;BMP280;35789;48.414;12.768;2023-06-22T12:50:00;96670.0;;;
68446;BMP280;35789;48.414;12.768;2023-06-22T12:55:00;96660.0;;;
68446;BMP280;35789;48.414;12.768;2023-06-22T13:00:00;96670.0;;;
68446;BMP280;35789;48.414;12.768;2023-06-22T13:05:02;96660.0;;;
68446;BMP280;35789;48.414;12.768;2023-06-22T13:10:00;96640.0;;;
68446;BMP280;35789;48.414;12.768;2023-06-22T13:15:00;96640.0;;;
68446;BMP280;35789;48.414;12.768;2023-06-22T13:20:00;96640.0;;;
68446;BMP280;35789;48.414;12.768;2023-06-22T13:25:00;96640.0;;;
68446;BMP280;35789;48.414;12.768;2023-06-22T13:30:00;96630.0;;;
68446;BMP280;35789;48.414;12.768;2023-06-22T13:35:00;96620.0;;;
68446;BMP280;35789;48.414;12.768;2023-06-22T13:40:00;96610.0;;;
68446;BMP280;35789;48.414;12.768;2023-06-22T13:45:00;96610.0;;;
68446;BMP280;35789;48.414;12.768;2023-06-22T13:50:00;96610.0;;;
68446;BMP280;35789;48.414;12.768;2023-06-22T13:55:00;96610.0;;;
68446;BMP280;35789;48.414;12.768;2023-06-22T14:00:00;96600.0;;;
68446;BMP280;35789;48.414;12.768;2023-06-22T14:05:00;96590.0;;;
68446;BMP280;35789;48.414;12.768;2023-06-22T14:10:00;96580.0;;;
68446;BMP280;35789;48.414;12.768;2023-06-22T14:15:00;96590.0;;;
68446;BMP280;35789;48.414;12.768;2023-06-22T14:20:00;96580.0;;;
68446;BMP280;35789;48.414;12.768;2023-06-22T14:25:00;96570.0;;;
68446;BMP280;35789;48.414;12.768;2023-06-22T14:30:00;96570.0;;;
68446;BMP280;35789;48.414;12.768;2023-06-22T14:35:00;96570.0;;;
68446;BMP280;35789;48.414;12.768;2023-06-22T14:40:00;96570.0;;;
68446;BMP280;35789;48.414;12.768;2023-06-22T14:45:00;96570.0;;;
68446;BMP280;35789;48.414;12.768;2023-06-22T14:50:00;96560.0;;;
68446;BMP280;35789;48.414;12.768;2023-06-22T14:55:00;96560.0;;;
68446;BMP280;35789;48.414;12.768;2023-06-22T15:00:00;96560.0;;;
68446;BMP280;35789;48.414;12.768;2023-06-22T15:05:00;96560.0;;;
68446;BMP280;35789;48.414;12.768;2023-06-22T15:10:00;96540.0;;;
68446;BMP280;35789;48.414;12.768;2023-06-22T15:15:00;96540.0;;;
68446;BMP280;35789;48.414;12.768;2023-06-22T15:20:03;96530.0;;;
68446;BMP280;35789;48.414;12.768;2023-06-22T15:25:03;96530.0;;;
68446;BMP280;35789;48.414;12.768;2023-06-22T15:30:00;96510.0;;;
68446;BMP280;35789;48.414;12.768;2023-06-22T15:35:00;96500.0;;;
68446;BMP280;35789;48.414;12.768;2023-06-22T15:40:00;96500.0;;;
68446;BMP280;35789;48.414;12.768;2023-06-22T15:45:00;96500.0;;;
68446;BMP280;35789;48.414;12.768;2023-06-22T15:50:00;96480.0;;;
68446;BMP280;35789;48.414;12.768;2023-06-22T15:55:00;96480.0;;;
68446;BMP280;35789;48.414;12.768;2023-06-22T16:00:00;96470.0;;;
68446;BMP280;35789;48.414;12.768;2023-06-22T16:05:00;96460.0;;;
68446;BMP280;35789;48.414;12.768;2023-06-22T16:10:00;96450.0;;;
68446;BMP280;35789;48.414;12.768;2023-06-22T16:15:00;96440.0;;;
68446;BMP280;35789;48.414;12.768;2023-06-22T16:20:00;96430.0;;;
68446;BMP280;35789;48.414;12.768;2023-06-22T16:25:00;96430.0;;;
68446;BMP280;35789;48.414;12.768;2023-06-22T16:30:00;96410.0;;;
68446;BMP280;35789;48.414;12.768;2023-06-22T16:35:00;96400.0;;;
68446;BMP280;35789;48.414;12.768;2023-06-22T16:40:00;96390.0;;;
68446;BMP280;35789;48.414;12.768;2023-06-22T16:45:00;96390.0;;;
68446;BMP280;35789;48.414;12.768;2023-06-22T16:50:00;96380.0;;;
68446;BMP280;35789;48.414;12.768;2023-06-22T16:55:00;96370.0;;;
68446;BMP280;35789;48.414;12.768;2023-06-22T17:00:00;96360.0;;;
68446;BMP280;35789;48.414;12.768;2023-06-22T17:05:01;96350.0;;;
68446;BMP280;35789;48.414;12.768;2023-06-22T17:10:01;96340.0;;;
68446;BMP280;35789;48.414;12.768;2023-06-22T17:15:01;96330.0;;;
68446;BMP280;35789;48.414;12.768;2023-06-22T17:20:00;96320.0;;;
68446;BMP280;35789;48.414;12.768;2023-06-22T17:25:01;96290.0;;;
68446;BMP280;35789;48.414;12.768;2023-06-22T17:30:07;96300.0;;;
68446;BMP280;35789;48.414;12.768;2023-06-22T17:35:02;96370.0;;;
68446;BMP280;35789;48.414;12.768;2023-06-22T17:40:03;96380.0;;;
68446;BMP280;35789;48.414;12.768;2023-06-22T17:45:00;96380.0;;;
68446;BMP280;35789;48.414;12.768;2023-06-22T17:50:05;96360.0;;;
68446;BMP280;35789;48.414;12.768;2023-06-22T17:55:01;96330.0;;;
68446;BMP280;35789;48.414;12.768;2023-06-22T18:00:00;96310.0;;;
68446;BMP280;35789;48.414;12.768;2023-06-22T18:05:02;96320.0;;;
68446;BMP280;35789;48.414;12.768;2023-06-22T18:10:01;96340.0;;;
68446;BMP280;35789;48.414;12.768;2023-06-22T18:15:02;96380.0;;;
68446;BMP280;35789;48.414;12.768;2023-06-22T18:20:02;96390.0;;;
68446;BMP280;35789;48.414;12.768;2023-06-22T18:25:01;96390.0;;;
68446;BMP280;35789;48.414;12.768;2023-06-22T18:30:00;96400.0;;;
68446;BMP280;35789;48.414;12.768;2023-06-22T18:35:00;96390.0;;;
68446;BMP280;35789;48.414;12.768;2023-06-22T18:40:01;96390.0;;;
68446;BMP280;35789;48.414;12.768;2023-06-22T18:45:00;96380.0;;;
68446;BMP280;35789;48.414;12.768;2023-06-22T18:50:05;96370.0;;;
68446;BMP280;35789;48.414;12.768;2023-06-22T18:55:01;96380.0;;;
68446;BMP280;35789;48.414;12.768;2023-06-22T19:00:02;96430.0;;;
68446;BMP280;35789;48.414;12.768;2023-06-22T19:05:06;96500.0;;;
68446;BMP280;35789;48.414;12.768;2023-06-22T19:10:20;96500.0;;;
68446;BMP280;35789;48.414;12.768;2023-06-22T19:15:01;96520.0;;;
68446;BMP280;35789;48.414;12.768;2023-06-22T19:20:02;96450.0;;;
68446;BMP280;35789;48.414;12.768;2023-06-22T19:25:00;96480.0;;;
68446;BMP280;35789;48.414;12.768;2023-06-22T19:30:02;96460.0;;;
68446;BMP280;35789;48.414;12.768;2023-06-22T19:35:02;96470.0;;;
68446;BMP280;35789;48.414;12.768;2023-06-22T19:40:00;96510.0;;;
68446;BMP280;35789;48.414;12.768;2023-06-22T19:45:00;96520.0;;;
68446;BMP280;35789;48.414;12.768;2023-06-22T19:50:02;96490.0;;;
68446;BMP280;35789;48.414;12.768;2023-06-22T19:55:00;96490.0;;;
68446;BMP280;35789;48.414;12.768;2023-06-22T20:00:00;96440.0;;;
68446;BMP280;35789;48.414;12.768;2023-06-22T20:05:04;96420.0;;;
68446;BMP280;35789;48.414;12.768;2023-06-22T20:10:12;96420.0;;;
68446;BMP280;35789;48.414;12.768;2023-06-22T20:15:14;96380.0;;;
68446;BMP280;35789;48.414;12.768;2023-06-22T20:20:00;96370.0;;;
68446;BMP280;35789;48.414;12.768;2023-06-22T20:25:00;96380.0;;;
68446;BMP280;35789;48.414;12.768;2023-06-22T20:30:13;96380.0;;;
68446;BMP280;35789;48.414;12.768;2023-06-22T20:35:02;96380.0;;;
68446;BMP280;35789;48.414;12.768;2023-06-22T20:40:00;96360.0;;;
68446;BMP280;35789;48.414;12.768;2023-06-22T20:45:00;96370.0;;;
68446;BMP280;35789;48.414;12.768;2023-06-22T20:50:00;96410.0;;;
68446;BMP280;35789;48.414;12.768;2023-06-22T20:55:00;96540.0;;;
68446;BMP280;35789;48.414;12.768;2023-06-22T21:00:01;96550.0;;;
68446;BMP280;35789;48.414;12.768;2023-06-22T21:05:01;96570.0;;;
68446;BMP280;35789;48.414;12.768;2023-06-22T21:10:00;96600.0;;;
68446;BMP280;35789;48.414;12.768;2023-06-22T21:15:02;96620.0;;;
68446;BMP280;35789;48.414;12.768;2023-06-22T21:20:00;96640.0;;;
68446;BMP280;35789;48.414;12.768;2023-06-22T21:25:04;96630.0;;;
68446;BMP280;35789;48.414;12.768;2023-06-22T21:30:01;96640.0;;;
68446;BMP280;35789;48.414;12.768;2023-06-22T21:35:00;96640.0;;;
68446;BMP280;35789;48.414;12.768;2023-06-22T21:40:00;96660.0;;;
68446;BMP280;35789;48.414;12.768;2023-06-22T21:45:00;96680.0;;;
68446;BMP280;35789;48.414;12.768;2023-06-22T21:50:00;96690.0;;;
68446;BMP280;35789;48.414;12.768;2023-06-22T21:55:00;96700.0;;;
68446;BMP280;35789;48.414;12.768;2023-06-22T22:00:00;96700.0;;;
68446;BMP280;35789;48.414;12.768;2023-06-22T22:05:00;96740.0;;;
68446;BMP280;35789;48.414;12.768;2023-06-22T22:10:00;96780.0;;;
68446;BMP280;35789;48.414;12.768;2023-06-22T22:15:00;96820.0;;;
68446;BMP280;35789;48.414;12.768;2023-06-22T22:20:00;96810.0;;;
68446;BMP280;35789;48.414;12.768;2023-06-22T22:25:00;96800.0;;;
68446;BMP280;35789;48.414;12.768;2023-06-22T22:30:00;96840.0;;;
68446;BMP280;35789;48.414;12.768;2023-06-22T22:35:00;96850.0;;;
68446;BMP280;35789;48.414;12.768;2023-06-22T22:40:00;96850.0;;;
68446;BMP280;35789;48.414;12.768;2023-06-22T22:45:00;96870.0;;;
68446;BMP280;35789;48.414;12.768;2023-06-22T22:50:00;96880.0;;;
68446;BMP280;35789;48.414;12.768;2023-06-22T22:55:02;96900.0;;;
68446;BMP280;35789;48.414;12.768;2023-06-22T23:00:00;96890.0;;;
68446;BMP280;35789;48.414;12.768;2023-06-22T23:05:02;96850.0;;;
68446;BMP280;35789;48.414;12.768;2023-06-22T23:10:00;96880.0;;;
68446;BMP280;35789;48.414;12.768;2023-06-22T23:15:00;96890.0;;;
68446;BMP280;35789;48.414;12.768;2023-06-22T23:20:00;96920.0;;;
68446;BMP280;35789;48.414;12.768;2023-06-22T23:25:00;96940.0;;;
68446;BMP280;35789;48.414;12.768;2023-06-22T23:30:00;96960.0;;;
68446;BMP280;35789;48.414;12.768;2023-06-22T23:35:01;96980.0;;;
68446;BMP280;35789;48.414;12.768;2023-06-22T23:40:00;96990.0;;;
68446;BMP280;35789;48.414;12.768;2023-06-22T23:45:00;97000.0;;;
68446;BMP280;35789;48.414;12.768;2023-06-22T23:50:00;97000.0;;;
68446;BMP280;35789;48.414;12.768;2023-06-22T23:55:00;96990.0;;;
